Portada
METAR-TAF:

METAR-TAF

Aeroports :

Ulan Bator, Mongòlia

latitud: 47-55N, longitud: 106-52E, altitud: 1306 m

Observació

L'informe es va fer fa 23 minuts, a les 06:00 UTC
Vent 4 kt amb direcció variable
Temperatura -12°C
Humitat 66%
Pressió 1020 hPa
Visibilitat: 6000 m
Cel ennuvolat a una alçada de 25000 ft

METAR: ZMUB 210600Z VRB02MPS 6000 BKN250 M12/M17 Q1020 NOSIG RMK QFE657.4 63 NW MO

Hora: 14:23 (06:23 UTC)

Pronòstic

L'informe es va fer fa 1 hora i 43 minuts, a les 04:40 UTC
Pronòstic vàlid del 21 a les 06 UTC al 22 a les 12 UTC
Vent 4 kt amb direcció variable
Visibilitat: 6000 m
Núvols disperses a una alçada de 10000 ft

TAF: ZMUB 210440Z 2106/2212 VRB02MPS 6000 SCT100 TXM10/2107Z TNM24/2123Z

Observacions i pronòstics meteorològics de més de 4000 aeroports (METAR i TAF).

Les estacions disponibles són els punts grocs i vermells al mapa.

Posi el ratolí al punt desitjat per veure el nom de l'estació.

Feu clic per veure les observacions i els pronòstics meteorològics.

Per canviar el mapa: feu clic els botons verds amb una creu de color negre per apropar; al botó verd amb un guió per allunyar la imatge; o en les fletxes verdes per a mapes adjacents.


METAR-TAF: